createdAt,value
2019-02-25T02:13:28.594Z,8.80
2019-02-25T02:18:33.478Z,9.30
2019-02-25T02:23:39.800Z,9.70
2019-02-25T02:28:45.323Z,9.90
2019-02-25T02:44:01.069Z,9.70
2019-02-25T02:54:10.137Z,9.80
2019-02-25T02:59:14.846Z,9.90
2019-02-25T03:09:25.761Z,9.90
2019-02-25T03:14:30.510Z,9.90
2019-02-25T03:19:37.602Z,10.00
2019-02-25T03:24:43.187Z,9.90
2019-02-25T03:29:48.318Z,9.80
2019-02-25T03:34:53.605Z,9.80
2019-02-25T03:39:58.936Z,9.70
2019-02-25T03:55:15.187Z,9.40
2019-02-25T04:00:24.244Z,8.80
2019-02-25T04:05:30.100Z,9.00
2019-02-25T04:20:50.239Z,9.50
2019-02-25T04:31:00.683Z,9.40
2019-02-25T04:36:05.779Z,9.40
2019-02-25T04:41:11.093Z,9.30
2019-02-25T04:51:20.620Z,9.20
2019-02-25T04:56:26.308Z,9.20
2019-02-25T05:11:41.611Z,9.10
2019-02-25T05:21:51.158Z,9.10
2019-02-25T05:26:57.113Z,9.00
2019-02-25T05:32:02.192Z,9.10
2019-02-25T05:47:21.066Z,7.20
2019-02-25T05:52:27.160Z,7.70
2019-02-25T06:07:42.805Z,8.60
2019-02-25T06:22:59.383Z,8.90
2019-02-25T06:38:15.345Z,9.00
2019-02-25T06:53:30.752Z,8.90
2019-02-25T06:58:48.601Z,9.10
2019-02-25T07:04:12.159Z,9.10
2019-02-25T07:09:41.657Z,9.50
2019-02-25T07:15:00.430Z,9.70
2019-02-25T07:20:29.087Z,9.80
2019-02-25T07:25:52.696Z,10.00
2019-02-25T07:36:39.548Z,10.70
2019-02-25T07:42:14.213Z,11.20
2019-02-25T07:47:27.171Z,12.30
2019-02-25T07:52:38.159Z,12.30
2019-02-25T07:58:14.192Z,12.70
2019-02-25T08:03:41.654Z,12.70
2019-02-25T08:09:18.195Z,12.90
2019-02-25T08:14:43.641Z,13.30
2019-02-25T08:20:26.117Z,13.40
2019-02-25T08:31:15.159Z,14.60
2019-02-25T08:37:14.839Z,14.70
2019-02-25T08:42:44.469Z,15.10
2019-02-25T08:48:02.788Z,16.50
2019-02-25T08:53:14.463Z,16.90
2019-02-25T08:58:19.936Z,18.20
2019-02-25T09:03:25.917Z,19.00
2019-02-25T09:08:32.266Z,20.70
2019-02-25T09:13:39.868Z,21.10
2019-02-25T09:18:45.990Z,21.30
2019-02-25T09:23:50.863Z,21.40
2019-02-25T09:28:58.996Z,21.60
2019-02-25T09:34:06.106Z,21.60
2019-02-25T09:39:16.852Z,21.70
2019-02-25T09:44:22.038Z,21.70
2019-02-25T09:49:26.912Z,21.90
2019-02-25T09:54:31.785Z,22.40
2019-02-25T09:59:47.265Z,23.10
2019-02-25T10:04:52.370Z,22.80
2019-02-25T10:09:57.372Z,22.80
2019-02-25T10:15:02.249Z,23.30
2019-02-25T10:20:07.951Z,24.80
2019-02-25T10:25:12.877Z,24.70
2019-02-25T10:30:19.341Z,25.20
2019-02-25T10:35:25.006Z,25.30
2019-02-25T10:40:30.591Z,25.30
2019-02-25T10:45:39.485Z,25.20
2019-02-25T10:50:45.650Z,24.80
2019-02-25T10:55:59.184Z,26.50
2019-02-25T11:01:07.216Z,27.00
2019-02-25T11:06:11.941Z,26.80
2019-02-25T11:11:25.419Z,26.70
2019-02-25T11:16:29.985Z,27.70
2019-02-25T11:21:35.290Z,27.50
2019-02-25T11:26:44.246Z,27.20
2019-02-25T11:31:51.573Z,28.50
2019-02-25T11:36:57.776Z,28.40
2019-02-25T11:42:05.491Z,27.50
2019-02-25T11:47:11.525Z,28.30
2019-02-25T11:52:16.345Z,29.10
2019-02-25T11:57:21.223Z,28.50
2019-02-25T12:02:26.239Z,28.40
2019-02-25T12:07:32.994Z,28.70
2019-02-25T12:12:37.720Z,29.00
2019-02-25T12:17:42.854Z,28.30
2019-02-25T12:22:48.476Z,29.00
2019-02-25T12:27:53.320Z,29.20
2019-02-25T12:32:59.056Z,28.60
2019-02-25T12:38:03.835Z,28.70
2019-02-25T12:43:11.297Z,28.50
2019-02-25T12:48:24.609Z,28.40
2019-02-25T12:53:38.242Z,26.60
2019-02-25T12:58:49.689Z,26.70
2019-02-25T13:04:06.203Z,27.80
2019-02-25T13:09:25.416Z,27.10
2019-02-25T13:14:41.903Z,25.00
2019-02-25T13:19:42.382Z,25.80
2019-02-25T13:24:47.227Z,25.70
2019-02-25T13:29:52.057Z,27.00
2019-02-25T13:35:01.062Z,27.40
2019-02-25T13:40:09.346Z,28.20
2019-02-25T13:45:21.403Z,27.60
2019-02-25T13:50:34.697Z,27.80
2019-02-25T13:55:42.832Z,27.70
2019-02-25T14:00:51.665Z,28.30
2019-02-25T14:06:01.030Z,28.20
2019-02-25T14:11:19.629Z,28.30
2019-02-25T14:16:25.166Z,28.70
2019-02-25T14:21:34.523Z,26.20
2019-02-25T14:26:40.746Z,26.30
2019-02-25T14:31:45.766Z,26.30
2019-02-25T14:36:52.312Z,27.20
2019-02-25T14:42:11.917Z,26.40
2019-02-25T14:47:22.534Z,25.90
2019-02-25T14:52:32.492Z,25.30
2019-02-25T14:57:45.387Z,25.40
2019-02-25T15:02:54.879Z,25.40
2019-02-25T15:08:05.719Z,25.70
2019-02-25T15:13:19.366Z,26.00
2019-02-25T15:18:37.832Z,26.70
2019-02-25T15:23:48.437Z,27.30
2019-02-25T15:28:56.127Z,28.00
2019-02-25T15:34:00.353Z,28.10
2019-02-25T15:39:10.831Z,27.80
2019-02-25T15:44:21.247Z,27.30
2019-02-25T15:49:32.702Z,26.40
2019-02-25T15:54:43.620Z,24.00
2019-02-25T15:59:55.127Z,22.30
2019-02-25T16:05:27.441Z,21.00
2019-02-25T16:10:42.999Z,20.30
2019-02-25T16:15:53.192Z,19.60
2019-02-25T16:21:07.988Z,19.20
2019-02-25T17:17:12.598Z,16.60
2019-02-25T17:22:32.400Z,16.60
2019-02-25T17:27:37.934Z,16.30
2019-02-25T17:32:44.085Z,16.20
2019-02-25T17:37:49.702Z,16.00
2019-02-25T17:42:56.345Z,15.80
2019-02-25T17:48:05.411Z,15.70
2019-02-25T17:53:09.740Z,15.50
2019-02-25T17:58:15.611Z,15.40
2019-02-25T18:03:21.889Z,15.30
2019-02-25T18:08:28.769Z,15.30
2019-02-25T18:13:35.251Z,15.20
2019-02-25T18:18:41.330Z,15.10
2019-02-25T18:23:47.008Z,14.90
2019-02-25T18:28:52.665Z,14.70
2019-02-25T18:34:02.172Z,14.60
2019-02-25T18:39:15.521Z,14.50
2019-02-25T18:44:21.342Z,14.40
2019-02-25T18:49:27.863Z,14.40
2019-02-25T18:54:32.808Z,14.30
2019-02-25T18:59:37.824Z,14.10
2019-02-25T19:04:44.012Z,14.20
2019-02-25T19:09:51.628Z,14.10
2019-02-25T19:14:57.694Z,14.00
2019-02-25T19:20:04.171Z,14.00
2019-02-25T19:25:15.743Z,13.80
2019-02-25T19:30:22.123Z,13.80
2019-02-25T19:35:28.723Z,13.80
2019-02-25T19:40:33.856Z,13.60
2019-02-25T19:45:40.307Z,13.50
2019-02-25T19:50:51.362Z,13.40
2019-02-25T19:55:55.115Z,13.40
2019-02-25T20:01:01.164Z,13.40
2019-02-25T20:06:11.118Z,13.30
2019-02-25T20:11:13.125Z,13.30
2019-02-25T20:16:22.966Z,13.30
2019-02-25T20:21:30.924Z,13.20
2019-02-25T20:26:38.647Z,13.20
2019-02-25T20:31:43.535Z,13.20
2019-02-25T20:36:50.490Z,13.20
2019-02-25T20:41:57.067Z,13.20
2019-02-25T20:47:04.118Z,13.20
2019-02-25T20:52:10.236Z,13.30
2019-02-25T20:57:18.134Z,13.10
2019-02-25T21:02:23.164Z,13.00
2019-02-25T21:07:38.036Z,12.90
2019-02-25T21:12:43.122Z,13.10
2019-02-25T21:17:48.314Z,12.90
2019-02-25T21:22:57.354Z,12.60
2019-02-25T21:28:04.170Z,12.70
2019-02-25T21:33:08.568Z,12.60
2019-02-25T21:38:13.540Z,12.80
2019-02-25T21:43:18.699Z,13.00
2019-02-25T21:53:39.478Z,13.10
2019-02-25T21:58:46.634Z,12.90
2019-02-25T22:24:13.753Z,12.80
2019-02-25T22:44:34.792Z,12.00
2019-02-25T22:59:59.010Z,12.10
2019-02-25T23:20:18.768Z,12.10
2019-02-25T23:25:23.550Z,11.60
2019-02-25T23:40:42.761Z,11.40
2019-02-25T23:45:49.036Z,10.90
2019-02-25T23:50:57.202Z,10.50
2019-02-25T23:56:04.077Z,10.10
